Time;durP1;ratioP1;P1;durP2;ratioP2;P2;SDS_P1;SDS_P2;PMS_P1;PMS_P2;Temp;Humidity;BMP_temperature;BMP_pressure;BME280_temperature;BME280_humidity;BME280_pressure;Samples;Min_cycle;Max_cycle;Signal;HPM_P1;HPM_P2
2022/12/12 00:01:41;;;;;;;68.67;29.27;;;-1.00;98.00;;;2.89;52.26;96907.88;5000738;28;20058;-60
2022/12/12 00:04:09;;;;;;;40.87;20.93;;;-1.00;97.80;;;2.89;52.35;96907.03;5002597;28;20049;-58
2022/12/12 00:06:37;;;;;;;50.03;24.37;;;-1.00;97.50;;;2.89;52.31;96905.25;5001957;28;20065;-58
2022/12/12 00:09:05;;;;;;;36.53;18.63;;;-1.00;98.00;;;2.90;52.08;96909.53;5001543;28;20222;-57
2022/12/12 00:11:33;;;;;;;33.37;18.87;;;-1.00;97.30;;;2.90;52.24;96908.72;5001669;28;20050;-58
2022/12/12 00:14:01;;;;;;;36.47;17.23;;;-1.00;97.00;;;2.88;52.40;96914.09;5001862;28;20042;-59
2022/12/12 00:16:29;;;;;;;37.20;16.70;;;-1.00;97.10;;;2.85;52.38;96908.25;5002288;28;20046;-59
2022/12/12 00:18:56;;;;;;;32.40;17.33;;;-1.00;97.20;;;2.85;52.65;96909.13;5002070;28;20212;-58
2022/12/12 00:21:28;;;;;;;30.00;15.93;;;-1.00;97.10;;;2.86;52.27;96907.31;5001852;28;20060;-59
2022/12/12 00:23:57;;;;;;;31.73;16.40;;;-1.00;96.70;;;2.83;52.31;96907.56;5000831;28;20065;-58
2022/12/12 00:26:31;;;;;;;29.17;14.30;;;-1.00;97.00;;;2.83;52.02;96907.56;5000564;28;20052;-57
2022/12/12 00:29:01;;;;;;;27.70;15.27;;;-1.10;96.50;;;2.82;52.19;96913.81;5002369;28;20047;-58
2022/12/12 00:31:29;;;;;;;26.47;14.10;;;-1.10;96.60;;;2.82;52.18;96909.38;5001488;28;20050;-58
2022/12/12 00:33:57;;;;;;;28.30;14.73;;;-1.10;97.00;;;2.83;52.22;96911.06;5001810;28;20048;-58
2022/12/12 00:36:28;;;;;;;28.47;15.77;;;-1.10;96.80;;;2.84;52.39;96910.06;5002024;28;20053;-58
2022/12/12 00:38:57;;;;;;;27.77;13.87;;;-1.00;96.50;;;2.84;51.96;96914.50;5017022;28;20046;-58
2022/12/12 00:41:25;;;;;;;27.00;14.73;;;-1.10;96.70;;;2.85;52.15;96905.63;5000509;28;20050;-58
2022/12/12 00:43:53;;;;;;;30.30;14.97;;;-1.10;96.50;;;2.81;52.11;96910.34;5003071;28;20050;-58
2022/12/12 00:46:24;;;;;;;27.73;14.90;;;-1.10;96.10;;;2.84;52.21;96906.63;5004088;28;20052;-58
2022/12/12 00:48:57;;;;;;;25.37;13.53;;;-1.00;96.20;;;2.84;51.96;96915.31;5005778;28;20046;-59
2022/12/12 00:51:28;;;;;;;27.40;13.40;;;-1.10;96.50;;;2.83;52.49;96915.44;5005214;28;20062;-57
2022/12/12 00:53:57;;;;;;;26.90;14.50;;;-1.10;96.20;;;2.83;52.28;96915.44;5004154;28;20053;-59
2022/12/12 00:56:27;;;;;;;33.40;16.80;;;-1.00;96.30;;;2.81;52.45;96912.97;5005277;28;20052;-59
2022/12/12 00:58:55;;;;;;;26.20;14.00;;;-1.10;96.20;;;2.81;52.46;96915.59;5005187;28;20046;-59
2022/12/12 01:01:27;;;;;;;28.43;14.40;;;-1.10;96.40;;;2.82;51.85;96911.19;5004543;28;20050;-59
2022/12/12 01:03:55;;;;;;;25.40;14.80;;;-1.10;95.70;;;2.80;51.84;96908.66;5004943;28;20352;-59
2022/12/12 01:06:23;;;;;;;23.90;13.13;;;-1.10;95.50;;;2.79;52.08;96907.00;5003820;28;20253;-59
2022/12/12 01:08:51;;;;;;;25.17;12.83;;;-1.10;96.20;;;2.80;52.02;96911.28;5004847;28;20046;-58
2022/12/12 01:11:20;;;;;;;28.80;13.77;;;-1.10;95.90;;;2.80;51.78;96913.94;5004613;28;20060;-50
2022/12/12 01:13:51;;;;;;;25.93;12.90;;;-1.10;95.60;;;2.80;51.69;96910.47;5004729;28;20046;-54
2022/12/12 01:16:20;;;;;;;27.77;14.17;;;-1.10;95.70;;;2.80;51.73;96913.09;5003770;28;20345;-51
2022/12/12 01:18:49;;;;;;;27.47;14.50;;;-1.20;95.30;;;2.77;51.65;96908.91;5005323;28;20064;-53
2022/12/12 01:21:18;;;;;;;29.37;13.77;;;-1.20;95.10;;;2.78;52.09;96905.34;4995186;28;20247;-50
2022/12/12 01:23:46;;;;;;;29.57;12.97;;;-1.10;95.40;;;2.76;51.93;96912.53;5003468;28;20054;-54
2022/12/12 01:26:19;;;;;;;23.27;13.27;;;-1.20;94.60;;;2.76;51.52;96912.53;5004573;28;20034;-54
2022/12/12 01:28:47;;;;;;;25.73;14.20;;;-1.20;94.80;;;2.77;51.72;96914.19;5004694;28;20042;-52
2022/12/12 01:31:15;;;;;;;24.73;13.37;;;-1.10;95.20;;;2.79;51.77;96917.50;5003032;28;20222;-55
2022/12/12 01:33:44;;;;;;;22.17;11.43;;;-1.10;94.50;;;2.81;51.75;96918.22;5004245;28;20046;-50
2022/12/12 01:36:16;;;;;;;24.90;12.80;;;-1.00;93.70;;;2.79;51.55;96914.88;5003366;28;20050;-52
2022/12/12 01:38:46;;;;;;;24.53;12.80;;;-1.10;92.80;;;2.79;51.59;96924.56;5004491;28;20052;-53
2022/12/12 01:41:16;;;;;;;23.20;12.50;;;-1.10;93.30;;;2.77;51.24;96927.31;5003985;28;20052;-52
2022/12/12 01:43:45;;;;;;;25.97;12.20;;;-1.20;92.80;;;2.74;51.29;96923.16;5003335;28;20052;-53
2022/12/12 01:46:38;;;;;;;25.23;12.83;;;-1.20;92.90;;;2.66;51.52;96920.34;5002884;28;20038;-50
2022/12/12 01:49:27;;;;;;;24.07;12.97;;;-1.20;93.00;;;2.63;51.15;96927.66;5019385;28;20336;-51
2022/12/12 01:51:59;;;;;;;27.77;12.83;;;-1.20;91.30;;;2.63;51.07;96931.13;5004274;28;20066;-51
2022/12/12 01:54:38;;;;;;;25.20;12.57;;;-1.30;92.20;;;2.56;51.47;96930.81;5001225;28;20050;-54
2022/12/12 01:57:12;;;;;;;25.00;12.70;;;-1.30;92.60;;;2.54;51.03;96932.75;5002556;28;20056;-52
2022/12/12 01:59:41;;;;;;;24.67;14.75;;;-1.30;92.90;;;2.50;51.23;96946.25;5003999;28;20061;-50
2022/12/12 02:02:09;;;;;;;31.73;20.03;;;-1.30;91.60;;;2.41;51.29;96944.41;5002274;28;20364;-49
2022/12/12 02:04:38;;;;;;;26.70;16.00;;;-1.40;90.80;;;2.33;51.09;96939.78;5004189;28;20054;-50
2022/12/12 02:07:06;;;;;;;26.53;15.07;;;-1.50;92.10;;;2.26;51.30;96938.63;5002808;28;20043;-52
2022/12/12 02:09:35;;;;;;;26.43;13.30;;;-1.60;92.70;;;2.28;50.77;96941.94;5002636;28;20046;-54
2022/12/12 02:12:03;;;;;;;27.97;14.93;;;-1.60;92.60;;;2.18;51.26;96936.63;5002691;28;20046;-53
2022/12/12 02:14:37;;;;;;;31.23;13.67;;;-1.70;92.50;;;2.14;51.04;96946.53;5003598;28;20052;-51
2022/12/12 02:17:57;;;;;;;26.75;14.05;;;-1.70;94.00;;;2.03;51.35;96943.94;5003609;28;20060;-55
2022/12/12 02:21:02;;;;;;;30.92;12.55;;;-1.80;93.30;;;1.74;51.79;96943.69;4982177;28;20279;-54
2022/12/12 02:23:48;;;;;;;24.67;12.93;;;-1.90;94.80;;;1.77;51.57;96948.69;5011913;28;20050;-51
2022/12/12 02:27:04;;;;;;;29.93;14.80;;;-2.10;96.90;;;1.71;51.60;96942.16;5003413;28;20044;-55
2022/12/12 02:29:38;;;;;;;25.47;12.80;;;-2.10;97.80;;;1.76;51.39;96936.53;4997259;28;20053;-51
2022/12/12 02:32:39;;;;;;;24.88;12.88;;;-2.00;97.60;;;1.61;51.68;96943.00;5002849;28;20046;-56
2022/12/12 02:35:36;;;;;;;29.27;13.93;;;-2.20;95.90;;;1.51;51.66;96937.66;5004137;28;20053;-55
2022/12/12 02:38:24;;;;;;;29.40;13.20;;;-2.30;97.80;;;1.44;52.42;96941.75;5003335;28;20046;-55
2022/12/12 02:41:27;;;;;;;26.23;13.70;;;-2.40;99.20;;;1.36;52.27;96935.31;5001818;28;20061;-54
2022/12/12 02:44:03;;;;;;;28.00;14.27;;;-2.30;99.90;;;1.42;51.86;96946.28;4998871;28;20213;-52
2022/12/12 02:46:43;;;;;;;27.70;13.97;;;-2.40;99.70;;;1.40;52.21;96949.00;5002772;28;20263;-54
2022/12/12 02:49:28;;;;;;;29.10;14.83;;;-2.40;99.70;;;1.37;52.49;96954.50;5003021;28;20046;-51
2022/12/12 02:51:58;;;;;;;32.50;14.03;;;-2.40;99.50;;;1.37;52.12;96942.19;5001729;28;20042;-55
2022/12/12 02:54:26;;;;;;;28.97;14.97;;;-2.40;99.90;;;1.31;51.86;96953.19;5002156;28;20054;-52
2022/12/12 02:57:00;;;;;;;33.13;15.97;;;-2.50;99.20;;;1.24;52.42;96945.91;5003197;28;20054;-52
2022/12/12 02:59:39;;;;;;;;;;;-2.60;99.90;;;1.14;52.78;96944.03;4996409;28;20260;-53
2022/12/12 03:07:45;;;;;;;26.17;12.53;;;-2.60;99.90;;;1.14;52.59;96951.91;5002494;28;20102;-53
2022/12/12 03:10:17;;;;;;;33.33;14.63;;;-2.70;99.90;;;0.98;52.95;96946.97;5002002;28;20050;-54
2022/12/12 03:13:20;;;;;;;31.67;14.70;;;-2.60;99.90;;;1.00;52.53;96946.03;4973514;28;20280;-51
2022/12/12 03:16:23;;;;;;;30.17;13.57;;;-2.70;99.90;;;0.96;53.24;96940.19;4997672;28;20064;-49
2022/12/12 03:19:08;;;;;;;27.73;13.87;;;-2.70;99.90;;;1.01;52.76;96935.44;4977330;28;20067;-52
2022/12/12 03:22:06;;;;;;;35.20;16.77;;;-2.60;99.90;;;1.00;52.16;96939.00;4996325;28;20053;-53
2022/12/12 03:25:07;;;;;;;33.47;14.27;;;-2.70;99.20;;;0.91;52.46;96947.56;4996345;28;20042;-51
2022/12/12 03:27:52;;;;;;;31.90;14.80;;;-2.70;99.90;;;0.97;52.46;96944.50;4993061;28;20379;-49
2022/12/12 03:30:20;;;;;;;30.07;14.80;;;-2.70;99.90;;;0.95;52.89;96947.25;5000983;28;20056;-52
2022/12/12 03:33:02;;;;;;;33.40;14.53;;;-2.80;99.90;;;0.91;52.95;96951.06;5000996;28;20050;-48
2022/12/12 03:35:38;;;;;;;36.97;15.93;;;-2.80;99.10;;;0.93;52.62;96946.53;4995434;28;20038;-51
2022/12/12 03:38:19;;;;;;;33.40;14.80;;;-2.80;99.30;;;0.91;52.74;96943.19;5000703;28;20066;-52
2022/12/12 03:40:54;;;;;;;33.43;14.47;;;-2.80;99.30;;;0.91;52.44;96943.19;5002101;28;20054;-51
2022/12/12 03:43:48;;;;;;;30.83;13.63;;;-2.90;98.90;;;0.85;52.15;96941.00;5001161;28;20046;-53
2022/12/12 03:46:42;;;;;;;27.30;14.15;;;-2.90;98.70;;;0.85;52.55;96941.00;5002014;28;20050;-52
2022/12/12 03:49:23;;;;;;;27.80;14.97;;;-2.90;99.30;;;0.89;52.84;96945.09;5001187;28;20050;-53
2022/12/12 03:52:01;;;;;;;32.10;15.37;;;-2.80;99.90;;;0.94;53.13;96942.94;5000784;28;20046;-52
2022/12/12 03:54:41;;;;;;;29.07;14.87;;;-2.80;99.90;;;1.00;52.41;96944.25;4993916;28;20048;-50
2022/12/12 03:57:26;;;;;;;31.03;14.70;;;-2.70;99.90;;;0.98;53.21;96946.97;5001241;28;20138;-51
2022/12/12 04:00:04;;;;;;;30.60;14.47;;;-2.70;99.80;;;1.02;52.69;96944.97;5000655;28;20072;-50
2022/12/12 04:02:40;;;;;;;23.43;14.00;;;-2.80;99.90;;;1.06;52.49;96945.56;4996683;28;20065;-50
2022/12/12 04:05:20;;;;;;;30.40;15.27;;;-2.70;99.90;;;1.04;52.49;96948.28;5000875;28;20391;-52
2022/12/12 04:07:58;;;;;;;30.50;14.33;;;-2.70;99.90;;;1.08;53.41;96954.97;5002006;28;20069;-51
2022/12/12 04:13:48;;;;;;;29.85;13.68;;;-2.60;99.60;;;1.05;52.85;96957.00;5001123;28;20038;-52
2022/12/12 04:16:28;;;;;;;34.40;16.37;;;-2.60;99.90;;;1.08;52.58;96951.53;5000833;28;20046;-52
2022/12/12 04:23:14;;;;;;;25.73;13.43;;;-2.60;99.90;;;1.09;52.78;96948.78;5002618;28;20099;-54
2022/12/12 04:25:03;;;;;;;27.13;12.80;;;-2.60;99.90;;;1.11;53.13;96957.38;5004829;28;20053;-55
2022/12/12 04:27:43;;;;;;;29.87;13.77;;;-2.60;99.50;;;1.12;53.02;96956.41;4998488;28;20045;-54
2022/12/12 04:30:13;;;;;;;27.83;13.43;;;-2.50;99.00;;;1.21;52.81;96957.47;5004138;28;20248;-50
2022/12/12 04:33:04;;;;;;;28.33;14.77;;;-2.50;99.00;;;1.20;53.20;96957.59;5004453;28;20049;-55
2022/12/12 04:35:40;;;;;;;26.37;13.83;;;-2.40;98.70;;;1.28;52.95;96963.94;4997487;28;20042;-52
2022/12/12 04:38:16;;;;;;;25.83;13.93;;;-2.40;98.70;;;1.29;52.83;96965.56;5005460;28;20046;-52
2022/12/12 04:40:49;;;;;;;26.90;13.43;;;-2.40;98.00;;;1.32;52.36;96967.16;5004078;28;20045;-55
2022/12/12 04:43:32;;;;;;;26.77;12.93;;;-2.40;97.60;;;1.29;52.53;96970.81;5004336;28;20050;-49
2022/12/12 04:46:06;;;;;;;24.10;13.63;;;-2.40;98.20;;;1.30;52.55;96967.25;5005400;28;20046;-54
2022/12/12 04:48:45;;;;;;;24.47;12.07;;;-2.40;98.10;;;1.29;52.91;96972.63;4998258;28;20038;-51
2022/12/12 04:51:21;;;;;;;29.03;12.90;;;-2.40;97.80;;;1.32;52.81;96961.91;5004850;28;20047;-51
2022/12/12 04:54:09;;;;;;;28.03;13.53;;;-2.40;97.80;;;1.29;52.97;96975.25;5004289;28;20075;-53
2022/12/12 04:56:41;;;;;;;26.20;13.33;;;-2.40;97.20;;;1.34;52.42;96967.84;4995549;28;20042;-52
2022/12/12 04:59:09;;;;;;;25.67;12.73;;;-2.40;97.70;;;1.34;52.67;96967.84;5004029;28;20042;-52
2022/12/12 05:01:58;;;;;;;30.70;14.07;;;-2.40;97.10;;;1.31;52.86;96966.28;5004700;28;20048;-50
2022/12/12 05:04:38;;;;;;;26.33;12.70;;;-2.40;97.50;;;1.34;52.86;96967.84;5003784;28;20050;-52
2022/12/12 05:07:17;;;;;;;26.50;13.00;;;-2.40;97.50;;;1.36;52.31;96971.19;5003966;28;20048;-53
2022/12/12 05:09:46;;;;;;;29.07;11.53;;;-2.40;97.20;;;1.38;53.03;96977.16;5003727;28;20038;-51
2022/12/12 05:12:16;;;;;;;25.70;13.80;;;-2.40;96.60;;;1.38;52.76;96977.16;5004600;28;20042;-55
2022/12/12 05:14:43;;;;;;;30.13;12.90;;;-2.40;97.10;;;1.43;52.25;96979.41;5004864;28;20129;-56
2022/12/12 05:17:19;;;;;;;27.37;13.87;;;-2.40;97.60;;;1.42;52.17;96978.56;5005244;28;20046;-56
2022/12/12 05:19:47;;;;;;;22.33;12.67;;;-2.30;96.20;;;1.44;52.17;96984.53;5003727;28;20052;-54
2022/12/12 05:22:14;;;;;;;26.80;13.13;;;-2.40;96.30;;;1.43;52.06;96980.22;5004365;28;20042;-55
2022/12/12 05:24:42;;;;;;;26.10;13.40;;;-2.40;96.00;;;1.40;52.55;96977.00;5003572;28;20050;-49
2022/12/12 05:27:11;;;;;;;28.87;14.30;;;-2.50;96.10;;;1.40;52.22;96982.25;5004328;28;20046;-55
2022/12/12 05:29:39;;;;;;;24.63;13.37;;;-2.40;95.80;;;1.41;52.43;96979.50;5003890;28;20069;-52
2022/12/12 05:32:07;;;;;;;33.80;15.93;;;-2.50;96.40;;;1.38;51.92;96982.41;5002748;28;20034;-53
2022/12/12 05:34:34;;;;;;;32.20;15.17;;;-2.40;95.50;;;1.40;52.12;96984.88;5003302;28;20367;-52
2022/12/12 05:37:03;;;;;;;27.67;14.53;;;-2.50;96.00;;;1.39;52.06;96986.66;5005076;28;20057;-52
2022/12/12 05:39:31;;;;;;;29.13;13.60;;;-2.50;96.20;;;1.40;52.25;96987.50;4996643;28;20247;-53
2022/12/12 05:41:59;;;;;;;34.00;15.50;;;-2.50;96.20;;;1.35;51.69;96988.69;5004300;28;20054;-50
2022/12/12 05:44:27;;;;;;;36.53;17.37;;;-2.50;95.90;;;1.36;52.51;96987.75;5004280;28;20042;-54
2022/12/12 05:46:55;;;;;;;24.40;13.97;;;-2.50;95.90;;;1.40;52.23;96995.38;5003112;28;20046;-53
2022/12/12 05:49:23;;;;;;;25.47;14.27;;;-2.50;95.70;;;1.39;51.89;96991.91;5004097;28;20042;-52
2022/12/12 05:51:51;;;;;;;29.60;14.30;;;-2.50;95.50;;;1.37;51.95;96992.03;5003738;28;20042;-53
2022/12/12 05:54:19;;;;;;;43.23;19.70;;;-2.60;96.00;;;1.37;51.80;96989.41;5003984;28;20048;-48
2022/12/12 05:56:47;;;;;;;30.07;14.63;;;-2.50;96.00;;;1.33;51.89;96990.59;4987308;28;20062;-50
2022/12/12 05:59:15;;;;;;;43.63;19.70;;;-2.50;95.60;;;1.37;51.93;96991.22;5004266;28;20056;-50
2022/12/12 06:01:42;;;;;;;49.47;21.70;;;-2.50;95.20;;;1.34;52.02;96994.09;5002952;28;20052;-49
2022/12/12 06:04:10;;;;;;;29.90;15.10;;;-2.50;94.80;;;1.37;51.84;96996.44;5018983;28;20050;-51
2022/12/12 06:06:38;;;;;;;29.37;14.63;;;-2.50;95.60;;;1.39;52.29;97002.41;5002568;28;20041;-51
2022/12/12 06:09:06;;;;;;;32.27;16.37;;;-2.50;95.30;;;1.38;51.56;96995.50;5003809;28;20232;-52
2022/12/12 06:11:34;;;;;;;31.97;14.00;;;-2.50;95.50;;;1.36;51.25;97000.88;5003442;28;20371;-54
2022/12/12 06:14:02;;;;;;;30.00;15.33;;;-2.50;95.20;;;1.37;51.96;97002.53;5002769;28;20249;-52
2022/12/12 06:16:30;;;;;;;29.47;14.53;;;-2.50;96.10;;;1.39;51.52;97007.66;5003624;28;20049;-52
2022/12/12 06:18:58;;;;;;;29.73;13.80;;;-2.50;95.20;;;1.33;51.95;97003.72;5002513;28;20048;-52
2022/12/12 06:21:26;;;;;;;26.43;13.33;;;-2.50;95.00;;;1.27;51.82;97003.38;5002857;28;20406;-49
2022/12/12 06:23:55;;;;;;;28.53;15.53;;;-2.60;94.60;;;1.21;52.54;97009.09;5003581;28;20046;-50
2022/12/12 06:26:23;;;;;;;24.13;11.90;;;-2.60;95.00;;;1.25;52.19;97005.28;5010425;28;20058;-52
2022/12/12 06:28:52;;;;;;;27.63;14.57;;;-2.60;96.20;;;1.25;51.61;97005.28;5003288;28;20034;-49
2022/12/12 06:31:19;;;;;;;27.17;14.10;;;-2.60;95.40;;;1.23;51.63;97009.81;5003301;28;20244;-53
2022/12/12 06:33:47;;;;;;;28.40;12.80;;;-2.60;96.00;;;1.28;51.87;97010.28;5003351;28;20038;-51
2022/12/12 06:36:23;;;;;;;26.43;13.93;;;-2.60;95.90;;;1.33;51.88;97010.75;5003408;28;20052;-51
2022/12/12 06:38:57;;;;;;;26.50;13.70;;;-2.50;96.40;;;1.35;52.08;97009.69;5001860;28;20054;-49
2022/12/12 06:41:29;;;;;;;27.20;14.93;;;-2.50;95.90;;;1.40;52.27;97006.72;5001550;28;20057;-50
2022/12/12 06:43:58;;;;;;;23.93;12.67;;;-2.40;95.90;;;1.44;52.38;97013.38;5003285;28;20046;-52
2022/12/12 06:46:28;;;;;;;28.07;13.27;;;-2.40;95.90;;;1.42;51.87;97011.84;5002952;28;20050;-53
2022/12/12 06:48:57;;;;;;;25.63;14.60;;;-2.40;94.90;;;1.41;51.42;97018.84;5003184;28;20042;-52
2022/12/12 06:51:30;;;;;;;29.33;13.90;;;-2.50;95.50;;;1.43;52.02;97016.94;5002651;28;20344;-49
2022/12/12 06:53:59;;;;;;;24.77;12.15;;;-2.40;95.20;;;1.45;52.02;97017.66;5003287;28;20375;-54
2022/12/12 06:56:28;;;;;;;25.60;12.27;;;-2.40;95.30;;;1.46;51.06;97019.34;5003354;28;20042;-51
2022/12/12 06:58:58;;;;;;;33.97;14.93;;;-2.40;95.00;;;1.44;51.16;97021.25;5002530;28;20048;-53
2022/12/12 07:01:26;;;;;;;31.67;15.30;;;-2.50;94.70;;;1.45;51.90;97017.66;5002291;28;20046;-54
2022/12/12 07:03:54;;;;;;;33.10;15.23;;;-2.40;95.40;;;1.41;51.58;97025.91;5002721;28;20042;-52
2022/12/12 07:06:22;;;;;;;34.13;15.70;;;-2.40;94.90;;;1.42;52.03;97024.97;5002651;28;20070;-50
2022/12/12 07:08:51;;;;;;;25.13;13.63;;;-2.50;95.20;;;1.40;51.76;97027.69;5003158;28;20366;-60
2022/12/12 07:11:23;;;;;;;26.90;13.17;;;-2.50;95.70;;;1.40;52.23;97027.69;5002009;28;20042;-61
2022/12/12 07:13:52;;;;;;;28.63;13.17;;;-2.50;95.50;;;1.40;51.35;97037.34;5002743;28;20038;-61
2022/12/12 07:16:20;;;;;;;32.00;15.30;;;-2.50;95.50;;;1.41;51.56;97039.84;5001558;28;20206;-61
2022/12/12 07:18:48;;;;;;;34.70;16.30;;;-2.50;95.80;;;1.43;51.90;97040.56;5002573;28;20046;-60
2022/12/12 07:21:19;;;;;;;27.43;14.10;;;-2.50;95.80;;;1.33;51.16;97031.75;5000956;28;20046;-60
2022/12/12 07:23:47;;;;;;;33.03;16.53;;;-2.50;94.00;;;1.39;51.61;97044.38;5002534;28;20070;-60
2022/12/12 07:26:18;;;;;;;36.27;15.53;;;-2.60;96.90;;;1.43;51.66;97051.06;5002535;28;20050;-60
2022/12/12 07:28:47;;;;;;;29.67;14.57;;;-2.40;96.20;;;1.41;51.61;97054.75;5002401;28;20053;-61
2022/12/12 07:31:21;;;;;;;50.70;18.63;;;-2.50;95.30;;;1.40;51.30;97055.69;5000976;28;20050;-60
2022/12/12 07:33:49;;;;;;;28.67;14.17;;;-2.50;94.90;;;1.41;51.24;97060.84;5002418;28;20046;-60
2022/12/12 07:36:17;;;;;;;29.30;13.97;;;-2.50;95.20;;;1.39;51.45;97065.38;5001014;28;20046;-61
2022/12/12 07:38:45;;;;;;;28.03;13.37;;;-2.50;94.50;;;1.34;51.07;97063.09;5002634;28;20252;-60
2022/12/12 07:41:16;;;;;;;25.33;13.43;;;-2.60;95.10;;;1.35;51.11;97061.31;5001959;28;20102;-62
2022/12/12 07:43:48;;;;;;;27.63;14.07;;;-2.60;95.50;;;1.30;51.37;97069.53;4986015;28;20052;-61
2022/12/12 07:46:23;;;;;;;25.57;14.03;;;-2.60;95.90;;;1.34;51.15;97073.59;5001270;28;20221;-61
2022/12/12 07:48:52;;;;;;;28.50;14.00;;;-2.60;96.30;;;1.40;51.45;97076.69;5002139;28;20034;-61
2022/12/12 07:51:20;;;;;;;28.03;13.60;;;-2.50;96.20;;;1.42;51.52;97075.63;5001912;28;20061;-61
2022/12/12 07:53:49;;;;;;;24.17;13.50;;;-2.40;95.40;;;1.45;51.44;97074.56;5004179;28;20050;-61
2022/12/12 07:56:19;;;;;;;29.03;13.30;;;-2.40;94.90;;;1.44;51.66;97073.72;5003109;28;20050;-61
2022/12/12 07:58:49;;;;;;;25.47;11.77;;;-2.50;94.50;;;1.48;51.60;97074.31;5004147;28;20042;-61
2022/12/12 08:01:21;;;;;;;24.93;12.50;;;-2.40;94.70;;;1.47;51.77;97081.34;5005482;28;20042;-61
2022/12/12 08:03:50;;;;;;;23.43;12.50;;;-2.40;94.50;;;1.52;51.30;97081.84;5005209;28;20046;-61
2022/12/12 08:06:20;;;;;;;29.20;12.37;;;-2.40;94.70;;;1.43;50.99;97073.84;5005878;28;20245;-61
2022/12/12 08:08:49;;;;;;;25.03;12.60;;;-2.50;93.40;;;1.44;50.83;97086.00;5005058;28;20375;-61
2022/12/12 08:11:21;;;;;;;26.53;12.53;;;-2.50;95.00;;;1.45;51.27;97080.63;5004146;28;20369;-61
2022/12/12 08:13:50;;;;;;;30.50;13.63;;;-2.50;94.40;;;1.50;51.19;97080.28;5004967;28;20337;-60
2022/12/12 08:16:25;;;;;;;24.90;13.47;;;-2.50;95.30;;;1.53;51.16;97085.28;5004991;28;20042;-60
2022/12/12 08:18:56;;;;;;;23.70;11.87;;;-2.30;94.60;;;1.58;51.41;97088.41;5006020;28;20050;-60
2022/12/12 08:21:25;;;;;;;23.73;12.00;;;-2.30;94.40;;;1.62;51.64;97081.94;5005294;28;20052;-60
2022/12/12 08:24:01;;;;;;;33.13;13.87;;;-2.30;94.40;;;1.64;51.47;97087.09;5004617;28;20053;-60
2022/12/12 08:26:30;;;;;;;34.37;13.60;;;-2.20;93.20;;;1.69;51.18;97090.19;5004601;28;20057;-60
2022/12/12 08:28:58;;;;;;;23.53;12.07;;;-2.20;93.30;;;1.66;51.68;97091.25;5005164;28;20046;-60
2022/12/12 08:31:26;;;;;;;27.10;13.23;;;-2.20;92.30;;;1.67;51.33;97094.72;5005217;28;20042;-60
2022/12/12 08:33:55;;;;;;;23.60;11.97;;;-2.20;92.60;;;1.73;50.83;97096.88;5004838;28;20056;-60
2022/12/12 08:36:30;;;;;;;21.70;11.70;;;-2.20;93.40;;;1.76;50.96;97099.25;5005143;28;20046;-61
2022/12/12 08:39:05;;;;;;;25.27;12.13;;;-2.10;93.10;;;1.82;50.95;97108.44;5005645;28;20249;-61
2022/12/12 08:41:36;;;;;;;27.90;12.60;;;-2.10;92.50;;;1.83;51.14;97103.06;5003929;28;20057;-61
2022/12/12 08:44:06;;;;;;;29.03;13.00;;;-2.10;92.30;;;1.87;50.69;97108.91;5001285;28;20046;-61
2022/12/12 08:46:35;;;;;;;27.17;12.80;;;-2.00;93.10;;;1.92;51.44;97112.84;5003231;28;20054;-61
2022/12/12 08:49:03;;;;;;;27.43;11.87;;;-2.00;93.70;;;1.95;50.70;97109.97;5003876;28;20046;-61
2022/12/12 08:51:33;;;;;;;25.13;13.00;;;-1.90;91.70;;;1.99;50.59;97115.00;5004891;28;20042;-61
2022/12/12 08:54:00;;;;;;;29.70;14.17;;;-1.90;91.90;;;2.03;50.80;97116.41;5004929;28;20045;-60
2022/12/12 08:56:28;;;;;;;24.73;13.30;;;-1.90;92.10;;;2.06;50.90;97114.38;5005301;28;20225;-61
2022/12/12 08:58:56;;;;;;;27.13;14.27;;;-1.90;92.10;;;2.10;51.44;97109.72;5004345;28;20038;-61
2022/12/12 09:01:26;;;;;;;28.73;13.87;;;-1.80;92.30;;;2.14;50.60;97103.28;5004614;28;20046;-61
2022/12/12 09:03:56;;;;;;;24.03;12.87;;;-1.70;92.50;;;2.20;50.63;97113.28;5005042;28;20223;-61
2022/12/12 09:06:25;;;;;;;25.43;11.90;;;-1.70;92.10;;;2.20;50.38;97102.78;5004948;28;20050;-61
2022/12/12 09:08:54;;;;;;;26.00;12.43;;;-1.70;90.40;;;2.23;51.10;97114.81;5004049;28;20053;-61
2022/12/12 09:11:23;;;;;;;28.23;13.00;;;-1.70;91.20;;;2.28;50.52;97110.88;5003107;28;20046;-61
2022/12/12 09:13:51;;;;;;;21.30;12.17;;;-1.60;91.60;;;2.33;50.89;97115.78;5003987;28;20038;-61
2022/12/12 09:16:20;;;;;;;26.23;12.63;;;-1.50;91.30;;;2.39;50.30;97124.97;5004407;28;20052;-61
2022/12/12 09:18:48;;;;;;;25.63;13.00;;;-1.50;90.70;;;2.40;50.84;97127.44;5004907;28;20033;-60
2022/12/12 09:21:17;;;;;;;26.30;12.77;;;-1.50;90.90;;;2.42;50.52;97135.22;5004820;28;20056;-61
2022/12/12 09:23:47;;;;;;;24.93;13.60;;;-1.50;90.50;;;2.44;50.27;97135.94;4997375;28;20045;-61
2022/12/12 09:26:16;;;;;;;26.43;13.37;;;-1.50;90.60;;;2.47;50.37;97135.69;5004820;28;20049;-61
2022/12/12 09:28:44;;;;;;;21.13;11.60;;;-1.40;90.80;;;2.50;50.82;97140.69;5011952;28;20068;-61
2022/12/12 09:31:13;;;;;;;24.30;12.60;;;-1.40;90.60;;;2.51;50.50;97147.63;5004129;28;20034;-61
2022/12/12 09:33:42;;;;;;;28.57;13.40;;;-1.40;90.10;;;2.49;50.39;97144.28;5004303;28;20060;-61
2022/12/12 09:36:11;;;;;;;28.87;14.17;;;-1.50;91.50;;;2.49;50.27;97144.28;5003449;28;20252;-61
2022/12/12 09:38:39;;;;;;;24.70;13.30;;;-1.50;91.20;;;2.50;50.64;97141.53;5004219;28;20046;-61
2022/12/12 09:41:16;;;;;;;22.60;12.90;;;-1.40;91.30;;;2.55;50.49;97139.38;5004438;28;20195;-61
2022/12/12 09:44:06;;;;;;;24.97;12.67;;;-1.30;91.70;;;2.55;50.23;97142.00;4995406;28;20252;-61
2022/12/12 09:46:45;;;;;;;25.60;13.47;;;-1.30;90.50;;;2.61;50.60;97143.28;5003163;28;20042;-61
2022/12/12 09:49:35;;;;;;;22.97;12.40;;;-1.30;89.10;;;2.57;49.82;97131.34;5002667;28;20046;-61
2022/12/12 09:52:27;;;;;;;23.93;13.30;;;-1.30;89.90;;;2.61;50.23;97129.31;4992579;28;20050;-60
2022/12/12 09:55:29;;;;;;;26.60;13.73;;;-1.30;90.10;;;2.60;50.44;97132.91;4996777;28;20242;-60
2022/12/12 09:58:37;;;;;;;22.33;11.93;;;-1.20;89.50;;;2.60;50.28;97133.75;4997968;28;20233;-60
2022/12/12 10:01:33;;;;;;;22.33;11.27;;;-1.20;88.40;;;2.67;50.09;97126.19;4997427;28;20064;-60
2022/12/12 10:04:39;;;;;;;25.17;12.67;;;-1.20;87.90;;;2.60;50.15;97119.75;4998790;28;20054;-60
2022/12/12 10:07:42;;;;;;;29.23;13.53;;;-1.30;88.80;;;2.61;50.16;97124.06;4997594;28;20053;-60
2022/12/12 10:10:28;;;;;;;34.60;14.95;;;-1.30;90.00;;;2.66;50.50;97116.66;4995810;28;20054;-60
2022/12/12 10:12:58;;;;;;;31.33;13.67;;;-1.20;90.20;;;2.74;50.27;97122.13;4997459;28;20042;-60
2022/12/12 10:15:41;;;;;;;30.00;14.50;;;-1.10;90.20;;;2.79;50.73;97121.72;4996783;28;20038;-60
2022/12/12 10:18:33;;;;;;;28.90;15.67;;;-1.00;90.70;;;2.84;50.73;97123.03;4997977;28;20042;-61
2022/12/12 10:21:05;;;;;;;27.70;13.27;;;-0.90;91.00;;;2.96;50.33;97118.56;4994783;28;20056;-60
2022/12/12 10:23:49;;;;;;;19.93;11.90;;;-0.80;89.20;;;2.98;50.07;97121.88;4996467;28;20038;-60
2022/12/12 10:26:23;;;;;;;18.95;8.63;;;-0.80;88.70;;;2.95;50.08;97117.72;4998004;28;20068;-60
2022/12/12 10:28:59;;;;;;;19.77;10.52;;;-0.90;87.70;;;2.96;49.90;97123.81;4997372;28;20356;-60
2022/12/12 10:31:51;;;;;;;24.23;11.83;;;-0.90;87.80;;;2.95;49.60;97114.28;4997252;28;20048;-61
2022/12/12 10:34:54;;;;;;;23.83;12.17;;;-1.00;88.20;;;2.90;50.43;97112.00;4998840;28;20069;-61
2022/12/12 10:37:58;;;;;;;66.53;23.67;;;-0.90;89.80;;;2.94;50.36;97109.97;5009949;28;20256;-61
2022/12/12 10:40:55;;;;;;;31.10;15.60;;;-0.80;89.50;;;2.96;50.18;97116.75;4995567;28;20232;-61
2022/12/12 10:43:45;;;;;;;30.70;15.40;;;-0.70;89.10;;;3.01;49.95;97121.66;4993597;28;20068;-61
2022/12/12 10:46:30;;;;;;;24.40;12.33;;;-0.70;89.20;;;3.04;50.22;97123.19;4997071;28;20068;-61
2022/12/12 10:48:58;;;;;;;22.17;11.63;;;-0.60;87.70;;;3.05;50.18;97115.16;4998449;28;20050;-61
2022/12/12 10:51:27;;;;;;;27.83;13.60;;;-0.60;87.80;;;3.03;50.18;97117.09;4996227;28;20382;-61
2022/12/12 10:53:55;;;;;;;23.37;12.07;;;-0.60;88.30;;;3.02;49.84;97106.69;4996631;28;20057;-61
2022/12/12 10:56:28;;;;;;;23.70;11.93;;;-0.60;87.50;;;3.02;50.12;97112.78;4996326;28;20075;-61